sensor_id;sensor_type;location;lat;lon;timestamp;P1;durP1;ratioP1;P2;durP2;ratioP2
80843;SDS011;70262;56.950;24.106;2023-05-23T00:00:31;3.63;;;2.63;;
80843;SDS011;70262;56.950;24.106;2023-05-23T00:02:57;3.60;;;2.60;;
80843;SDS011;70262;56.950;24.106;2023-05-23T00:05:24;4.50;;;3.08;;
80843;SDS011;70262;56.950;24.106;2023-05-23T00:07:50;3.70;;;2.60;;
80843;SDS011;70262;56.950;24.106;2023-05-23T00:10:16;4.18;;;2.50;;
80843;SDS011;70262;56.950;24.106;2023-05-23T00:12:41;3.55;;;2.78;;
80843;SDS011;70262;56.950;24.106;2023-05-23T00:15:07;4.10;;;3.20;;
80843;SDS011;70262;56.950;24.106;2023-05-23T00:17:33;3.38;;;2.83;;
80843;SDS011;70262;56.950;24.106;2023-05-23T00:20:02;4.40;;;2.88;;
80843;SDS011;70262;56.950;24.106;2023-05-23T00:22:28;3.70;;;2.70;;
80843;SDS011;70262;56.950;24.106;2023-05-23T00:24:53;2.95;;;2.30;;
80843;SDS011;70262;56.950;24.106;2023-05-23T00:27:18;3.22;;;2.42;;
80843;SDS011;70262;56.950;24.106;2023-05-23T00:29:44;3.95;;;2.90;;
80843;SDS011;70262;56.950;24.106;2023-05-23T00:32:09;2.90;;;2.40;;
80843;SDS011;70262;56.950;24.106;2023-05-23T00:34:34;5.38;;;2.95;;
80843;SDS011;70262;56.950;24.106;2023-05-23T00:37:01;3.45;;;2.72;;
80843;SDS011;70262;56.950;24.106;2023-05-23T00:39:28;3.47;;;2.88;;
80843;SDS011;70262;56.950;24.106;2023-05-23T00:41:54;4.18;;;3.25;;
80843;SDS011;70262;56.950;24.106;2023-05-23T00:44:20;4.25;;;2.70;;
80843;SDS011;70262;56.950;24.106;2023-05-23T00:46:46;3.58;;;2.97;;
80843;SDS011;70262;56.950;24.106;2023-05-23T00:49:14;3.95;;;3.10;;
80843;SDS011;70262;56.950;24.106;2023-05-23T00:51:44;4.10;;;3.00;;
80843;SDS011;70262;56.950;24.106;2023-05-23T00:54:10;3.85;;;3.00;;
80843;SDS011;70262;56.950;24.106;2023-05-23T00:56:36;4.05;;;2.45;;
80843;SDS011;70262;56.950;24.106;2023-05-23T00:59:02;3.63;;;2.88;;
80843;SDS011;70262;56.950;24.106;2023-05-23T01:01:28;3.88;;;3.03;;
80843;SDS011;70262;56.950;24.106;2023-05-23T01:03:54;3.85;;;2.83;;
80843;SDS011;70262;56.950;24.106;2023-05-23T01:06:20;4.38;;;2.95;;
80843;SDS011;70262;56.950;24.106;2023-05-23T01:08:46;4.72;;;3.10;;
80843;SDS011;70262;56.950;24.106;2023-05-23T01:14:21;4.53;;;3.00;;
80843;SDS011;70262;56.950;24.106;2023-05-23T01:16:52;4.05;;;2.90;;
80843;SDS011;70262;56.950;24.106;2023-05-23T01:19:35;4.10;;;3.20;;
80843;SDS011;70262;56.950;24.106;2023-05-23T01:22:32;3.67;;;2.40;;
80843;SDS011;70262;56.950;24.106;2023-05-23T01:28:11;4.78;;;2.97;;
80843;SDS011;70262;56.950;24.106;2023-05-23T01:30:40;4.20;;;2.92;;
80843;SDS011;70262;56.950;24.106;2023-05-23T01:33:07;4.75;;;3.08;;
80843;SDS011;70262;56.950;24.106;2023-05-23T01:35:33;4.05;;;3.13;;
80843;SDS011;70262;56.950;24.106;2023-05-23T01:37:58;5.82;;;3.20;;
80843;SDS011;70262;56.950;24.106;2023-05-23T01:40:24;3.33;;;2.90;;
80843;SDS011;70262;56.950;24.106;2023-05-23T01:42:51;4.50;;;3.47;;
80843;SDS011;70262;56.950;24.106;2023-05-23T01:45:17;3.78;;;3.00;;
80843;SDS011;70262;56.950;24.106;2023-05-23T01:47:42;3.70;;;3.05;;
80843;SDS011;70262;56.950;24.106;2023-05-23T01:50:08;3.42;;;2.60;;
80843;SDS011;70262;56.950;24.106;2023-05-23T01:52:35;4.97;;;3.10;;
80843;SDS011;70262;56.950;24.106;2023-05-23T01:55:00;4.70;;;3.35;;
80843;SDS011;70262;56.950;24.106;2023-05-23T01:57:28;3.45;;;3.00;;
80843;SDS011;70262;56.950;24.106;2023-05-23T01:59:53;4.15;;;3.38;;
80843;SDS011;70262;56.950;24.106;2023-05-23T02:02:19;4.88;;;4.05;;
80843;SDS011;70262;56.950;24.106;2023-05-23T02:04:44;5.72;;;3.65;;
80843;SDS011;70262;56.950;24.106;2023-05-23T02:07:10;5.05;;;3.60;;
80843;SDS011;70262;56.950;24.106;2023-05-23T02:09:35;4.15;;;3.60;;
80843;SDS011;70262;56.950;24.106;2023-05-23T02:12:01;4.13;;;3.40;;
80843;SDS011;70262;56.950;24.106;2023-05-23T02:14:26;4.82;;;3.45;;
80843;SDS011;70262;56.950;24.106;2023-05-23T02:16:52;3.90;;;3.30;;
80843;SDS011;70262;56.950;24.106;2023-05-23T02:19:18;5.78;;;3.70;;
80843;SDS011;70262;56.950;24.106;2023-05-23T02:21:43;4.35;;;3.90;;
80843;SDS011;70262;56.950;24.106;2023-05-23T02:24:08;4.25;;;3.53;;
80843;SDS011;70262;56.950;24.106;2023-05-23T02:26:34;4.82;;;4.00;;
80843;SDS011;70262;56.950;24.106;2023-05-23T02:28:59;4.40;;;3.40;;
80843;SDS011;70262;56.950;24.106;2023-05-23T02:31:25;4.20;;;3.47;;
80843;SDS011;70262;56.950;24.106;2023-05-23T02:33:51;3.78;;;3.25;;
80843;SDS011;70262;56.950;24.106;2023-05-23T02:36:17;4.90;;;3.38;;
80843;SDS011;70262;56.950;24.106;2023-05-23T02:38:43;5.45;;;3.88;;
80843;SDS011;70262;56.950;24.106;2023-05-23T02:41:08;5.10;;;3.80;;
80843;SDS011;70262;56.950;24.106;2023-05-23T02:43:34;5.07;;;3.60;;
80843;SDS011;70262;56.950;24.106;2023-05-23T02:45:59;5.05;;;4.55;;
80843;SDS011;70262;56.950;24.106;2023-05-23T02:48:25;5.40;;;4.05;;
80843;SDS011;70262;56.950;24.106;2023-05-23T02:50:50;4.57;;;4.03;;
80843;SDS011;70262;56.950;24.106;2023-05-23T02:53:16;4.80;;;4.20;;
80843;SDS011;70262;56.950;24.106;2023-05-23T02:55:42;4.72;;;3.85;;
80843;SDS011;70262;56.950;24.106;2023-05-23T02:58:07;6.22;;;4.30;;
80843;SDS011;70262;56.950;24.106;2023-05-23T03:00:33;5.57;;;3.67;;
80843;SDS011;70262;56.950;24.106;2023-05-23T03:02:58;6.25;;;3.88;;
80843;SDS011;70262;56.950;24.106;2023-05-23T03:05:24;4.95;;;3.70;;
80843;SDS011;70262;56.950;24.106;2023-05-23T03:07:49;4.43;;;3.80;;
80843;SDS011;70262;56.950;24.106;2023-05-23T03:10:16;4.18;;;3.78;;
80843;SDS011;70262;56.950;24.106;2023-05-23T03:12:42;6.00;;;4.10;;
80843;SDS011;70262;56.950;24.106;2023-05-23T03:15:08;4.55;;;3.97;;
80843;SDS011;70262;56.950;24.106;2023-05-23T03:17:34;6.13;;;4.20;;
80843;SDS011;70262;56.950;24.106;2023-05-23T03:19:59;4.55;;;3.75;;
80843;SDS011;70262;56.950;24.106;2023-05-23T03:22:24;5.55;;;4.43;;
80843;SDS011;70262;56.950;24.106;2023-05-23T03:24:50;5.30;;;4.10;;
80843;SDS011;70262;56.950;24.106;2023-05-23T03:27:15;5.22;;;3.83;;
80843;SDS011;70262;56.950;24.106;2023-05-23T03:29:41;5.63;;;3.83;;
80843;SDS011;70262;56.950;24.106;2023-05-23T03:32:06;5.65;;;4.20;;
80843;SDS011;70262;56.950;24.106;2023-05-23T03:34:31;5.68;;;4.20;;
80843;SDS011;70262;56.950;24.106;2023-05-23T03:36:58;5.78;;;4.45;;
80843;SDS011;70262;56.950;24.106;2023-05-23T03:39:23;5.35;;;4.40;;
80843;SDS011;70262;56.950;24.106;2023-05-23T03:41:49;4.95;;;3.55;;
80843;SDS011;70262;56.950;24.106;2023-05-23T03:44:14;4.95;;;3.85;;
80843;SDS011;70262;56.950;24.106;2023-05-23T03:46:40;5.03;;;3.83;;
80843;SDS011;70262;56.950;24.106;2023-05-23T03:49:05;4.80;;;4.13;;
80843;SDS011;70262;56.950;24.106;2023-05-23T03:51:30;4.60;;;4.13;;
80843;SDS011;70262;56.950;24.106;2023-05-23T03:53:56;5.15;;;4.25;;
80843;SDS011;70262;56.950;24.106;2023-05-23T03:56:21;5.30;;;3.40;;
80843;SDS011;70262;56.950;24.106;2023-05-23T03:58:47;5.85;;;4.50;;
80843;SDS011;70262;56.950;24.106;2023-05-23T04:01:12;4.38;;;3.67;;
80843;SDS011;70262;56.950;24.106;2023-05-23T04:03:38;5.10;;;4.25;;
80843;SDS011;70262;56.950;24.106;2023-05-23T04:06:03;4.20;;;3.80;;
80843;SDS011;70262;56.950;24.106;2023-05-23T04:08:29;5.30;;;3.92;;
80843;SDS011;70262;56.950;24.106;2023-05-23T04:10:58;4.85;;;4.32;;
80843;SDS011;70262;56.950;24.106;2023-05-23T04:13:26;5.20;;;4.68;;
80843;SDS011;70262;56.950;24.106;2023-05-23T04:15:52;5.05;;;4.43;;
80843;SDS011;70262;56.950;24.106;2023-05-23T04:18:20;4.75;;;4.32;;
80843;SDS011;70262;56.950;24.106;2023-05-23T04:20:46;5.05;;;3.85;;
80843;SDS011;70262;56.950;24.106;2023-05-23T04:23:11;5.18;;;4.68;;
80843;SDS011;70262;56.950;24.106;2023-05-23T04:25:36;5.20;;;3.53;;
80843;SDS011;70262;56.950;24.106;2023-05-23T04:28:03;5.30;;;4.22;;
80843;SDS011;70262;56.950;24.106;2023-05-23T04:30:29;4.38;;;3.97;;
80843;SDS011;70262;56.950;24.106;2023-05-23T04:32:55;5.03;;;3.55;;
80843;SDS011;70262;56.950;24.106;2023-05-23T04:35:22;4.80;;;4.00;;
80843;SDS011;70262;56.950;24.106;2023-05-23T04:37:47;6.28;;;4.90;;
80843;SDS011;70262;56.950;24.106;2023-05-23T04:40:13;5.13;;;3.90;;
80843;SDS011;70262;56.950;24.106;2023-05-23T04:42:38;5.05;;;3.60;;
80843;SDS011;70262;56.950;24.106;2023-05-23T04:45:06;5.18;;;4.68;;
80843;SDS011;70262;56.950;24.106;2023-05-23T04:47:33;4.88;;;3.95;;
80843;SDS011;70262;56.950;24.106;2023-05-23T04:49:58;4.18;;;3.67;;
80843;SDS011;70262;56.950;24.106;2023-05-23T04:52:24;4.82;;;4.22;;
80843;SDS011;70262;56.950;24.106;2023-05-23T04:54:51;5.75;;;4.18;;
80843;SDS011;70262;56.950;24.106;2023-05-23T04:57:18;5.07;;;4.00;;
80843;SDS011;70262;56.950;24.106;2023-05-23T04:59:43;5.88;;;4.07;;
80843;SDS011;70262;56.950;24.106;2023-05-23T05:02:09;5.63;;;3.90;;
80843;SDS011;70262;56.950;24.106;2023-05-23T05:04:34;5.47;;;4.55;;
80843;SDS011;70262;56.950;24.106;2023-05-23T05:07:00;6.10;;;4.60;;
80843;SDS011;70262;56.950;24.106;2023-05-23T05:09:28;5.57;;;4.35;;
80843;SDS011;70262;56.950;24.106;2023-05-23T05:11:54;6.93;;;4.38;;
80843;SDS011;70262;56.950;24.106;2023-05-23T05:14:19;4.90;;;3.90;;
80843;SDS011;70262;56.950;24.106;2023-05-23T05:16:45;6.82;;;4.32;;
80843;SDS011;70262;56.950;24.106;2023-05-23T05:19:11;6.65;;;3.88;;
80843;SDS011;70262;56.950;24.106;2023-05-23T05:21:37;8.30;;;3.80;;
80843;SDS011;70262;56.950;24.106;2023-05-23T05:24:02;7.72;;;5.00;;
80843;SDS011;70262;56.950;24.106;2023-05-23T05:26:29;7.57;;;3.97;;
80843;SDS011;70262;56.950;24.106;2023-05-23T05:28:54;8.43;;;4.07;;
80843;SDS011;70262;56.950;24.106;2023-05-23T05:31:20;8.10;;;4.90;;
80843;SDS011;70262;56.950;24.106;2023-05-23T05:33:46;7.05;;;4.38;;
80843;SDS011;70262;56.950;24.106;2023-05-23T05:36:11;8.93;;;4.35;;
80843;SDS011;70262;56.950;24.106;2023-05-23T05:38:37;7.38;;;4.30;;
80843;SDS011;70262;56.950;24.106;2023-05-23T05:41:02;7.53;;;4.80;;
80843;SDS011;70262;56.950;24.106;2023-05-23T05:43:28;8.00;;;4.63;;
80843;SDS011;70262;56.950;24.106;2023-05-23T05:45:53;7.15;;;4.30;;
80843;SDS011;70262;56.950;24.106;2023-05-23T05:48:18;7.35;;;3.95;;
80843;SDS011;70262;56.950;24.106;2023-05-23T05:50:44;5.15;;;4.22;;
80843;SDS011;70262;56.950;24.106;2023-05-23T05:53:10;6.45;;;4.00;;
80843;SDS011;70262;56.950;24.106;2023-05-23T05:55:36;6.78;;;3.83;;
80843;SDS011;70262;56.950;24.106;2023-05-23T05:58:02;7.53;;;4.63;;
80843;SDS011;70262;56.950;24.106;2023-05-23T06:00:27;6.20;;;3.63;;
80843;SDS011;70262;56.950;24.106;2023-05-23T06:02:53;7.32;;;3.70;;
80843;SDS011;70262;56.950;24.106;2023-05-23T06:05:21;5.45;;;3.95;;
80843;SDS011;70262;56.950;24.106;2023-05-23T06:07:47;6.57;;;4.00;;
80843;SDS011;70262;56.950;24.106;2023-05-23T06:10:14;5.03;;;3.97;;
80843;SDS011;70262;56.950;24.106;2023-05-23T06:12:39;8.00;;;4.30;;
80843;SDS011;70262;56.950;24.106;2023-05-23T06:15:05;12.25;;;4.55;;
80843;SDS011;70262;56.950;24.106;2023-05-23T06:17:31;6.00;;;4.07;;
80843;SDS011;70262;56.950;24.106;2023-05-23T06:19:56;5.80;;;3.72;;
80843;SDS011;70262;56.950;24.106;2023-05-23T06:22:21;8.13;;;4.40;;
80843;SDS011;70262;56.950;24.106;2023-05-23T06:24:47;6.18;;;3.90;;
80843;SDS011;70262;56.950;24.106;2023-05-23T06:27:12;6.30;;;4.57;;
80843;SDS011;70262;56.950;24.106;2023-05-23T06:29:38;6.22;;;4.32;;
80843;SDS011;70262;56.950;24.106;2023-05-23T06:32:04;8.40;;;4.22;;
80843;SDS011;70262;56.950;24.106;2023-05-23T06:34:29;9.80;;;4.68;;
80843;SDS011;70262;56.950;24.106;2023-05-23T06:36:55;6.40;;;3.80;;
80843;SDS011;70262;56.950;24.106;2023-05-23T06:39:20;7.70;;;4.25;;
80843;SDS011;70262;56.950;24.106;2023-05-23T06:41:46;6.80;;;4.40;;
80843;SDS011;70262;56.950;24.106;2023-05-23T06:44:12;7.00;;;4.30;;
80843;SDS011;70262;56.950;24.106;2023-05-23T06:46:37;8.85;;;4.55;;
80843;SDS011;70262;56.950;24.106;2023-05-23T06:49:03;9.30;;;4.10;;
80843;SDS011;70262;56.950;24.106;2023-05-23T06:51:28;8.98;;;4.40;;
80843;SDS011;70262;56.950;24.106;2023-05-23T06:53:53;8.30;;;4.53;;
80843;SDS011;70262;56.950;24.106;2023-05-23T06:56:20;6.97;;;4.15;;
80843;SDS011;70262;56.950;24.106;2023-05-23T06:58:47;8.35;;;4.40;;
80843;SDS011;70262;56.950;24.106;2023-05-23T07:01:12;9.20;;;4.32;;
80843;SDS011;70262;56.950;24.106;2023-05-23T07:03:37;6.00;;;3.72;;
80843;SDS011;70262;56.950;24.106;2023-05-23T07:06:05;9.40;;;4.50;;
80843;SDS011;70262;56.950;24.106;2023-05-23T07:08:31;7.97;;;4.18;;
80843;SDS011;70262;56.950;24.106;2023-05-23T07:10:57;5.38;;;4.60;;
80843;SDS011;70262;56.950;24.106;2023-05-23T07:13:22;7.55;;;4.53;;
80843;SDS011;70262;56.950;24.106;2023-05-23T07:15:47;6.70;;;4.18;;
80843;SDS011;70262;56.950;24.106;2023-05-23T07:18:13;5.78;;;4.18;;
80843;SDS011;70262;56.950;24.106;2023-05-23T07:20:38;12.18;;;4.40;;
80843;SDS011;70262;56.950;24.106;2023-05-23T07:23:03;7.00;;;3.67;;
80843;SDS011;70262;56.950;24.106;2023-05-23T07:25:29;7.68;;;4.40;;
80843;SDS011;70262;56.950;24.106;2023-05-23T07:27:54;12.50;;;3.80;;
80843;SDS011;70262;56.950;24.106;2023-05-23T07:30:20;8.80;;;3.22;;
80843;SDS011;70262;56.950;24.106;2023-05-23T07:32:47;10.75;;;4.43;;
80843;SDS011;70262;56.950;24.106;2023-05-23T07:35:13;9.10;;;3.83;;
80843;SDS011;70262;56.950;24.106;2023-05-23T07:37:48;10.45;;;4.50;;
80843;SDS011;70262;56.950;24.106;2023-05-23T07:40:13;8.13;;;3.85;;
80843;SDS011;70262;56.950;24.106;2023-05-23T07:42:39;8.95;;;3.83;;
80843;SDS011;70262;56.950;24.106;2023-05-23T07:45:04;8.52;;;4.20;;
80843;SDS011;70262;56.950;24.106;2023-05-23T07:47:30;6.22;;;4.38;;
80843;SDS011;70262;56.950;24.106;2023-05-23T07:49:56;7.38;;;4.10;;
80843;SDS011;70262;56.950;24.106;2023-05-23T07:52:21;7.68;;;4.00;;
80843;SDS011;70262;56.950;24.106;2023-05-23T07:54:46;7.53;;;3.97;;
80843;SDS011;70262;56.950;24.106;2023-05-23T07:57:12;5.72;;;4.07;;
80843;SDS011;70262;56.950;24.106;2023-05-23T07:59:39;7.97;;;3.70;;
80843;SDS011;70262;56.950;24.106;2023-05-23T08:02:06;8.73;;;4.28;;
80843;SDS011;70262;56.950;24.106;2023-05-23T08:04:32;6.68;;;4.10;;
80843;SDS011;70262;56.950;24.106;2023-05-23T08:06:57;6.70;;;4.60;;
80843;SDS011;70262;56.950;24.106;2023-05-23T08:09:24;8.18;;;4.53;;
80843;SDS011;70262;56.950;24.106;2023-05-23T08:11:50;7.65;;;4.00;;
80843;SDS011;70262;56.950;24.106;2023-05-23T08:14:15;5.95;;;3.63;;
80843;SDS011;70262;56.950;24.106;2023-05-23T08:16:40;5.93;;;3.40;;
80843;SDS011;70262;56.950;24.106;2023-05-23T08:19:06;6.03;;;3.65;;
80843;SDS011;70262;56.950;24.106;2023-05-23T08:21:32;8.57;;;3.78;;
80843;SDS011;70262;56.950;24.106;2023-05-23T08:23:57;7.13;;;3.67;;
80843;SDS011;70262;56.950;24.106;2023-05-23T08:26:23;6.55;;;3.80;;
80843;SDS011;70262;56.950;24.106;2023-05-23T08:28:48;7.28;;;4.30;;
80843;SDS011;70262;56.950;24.106;2023-05-23T08:31:15;5.80;;;3.97;;
80843;SDS011;70262;56.950;24.106;2023-05-23T08:33:41;6.00;;;3.70;;
80843;SDS011;70262;56.950;24.106;2023-05-23T08:36:07;6.63;;;3.90;;
80843;SDS011;70262;56.950;24.106;2023-05-23T08:38:32;7.00;;;4.00;;
80843;SDS011;70262;56.950;24.106;2023-05-23T08:40:59;6.28;;;3.65;;
80843;SDS011;70262;56.950;24.106;2023-05-23T08:43:25;6.07;;;4.10;;
80843;SDS011;70262;56.950;24.106;2023-05-23T08:45:51;10.43;;;4.15;;
80843;SDS011;70262;56.950;24.106;2023-05-23T08:48:18;7.88;;;3.95;;
80843;SDS011;70262;56.950;24.106;2023-05-23T08:50:45;5.75;;;4.18;;
80843;SDS011;70262;56.950;24.106;2023-05-23T08:53:14;5.55;;;3.60;;
80843;SDS011;70262;56.950;24.106;2023-05-23T08:55:44;6.43;;;3.90;;
80843;SDS011;70262;56.950;24.106;2023-05-23T08:58:12;6.43;;;4.00;;
80843;SDS011;70262;56.950;24.106;2023-05-23T09:00:39;6.25;;;3.80;;
80843;SDS011;70262;56.950;24.106;2023-05-23T09:03:08;6.72;;;3.97;;
80843;SDS011;70262;56.950;24.106;2023-05-23T09:05:36;7.00;;;4.00;;
80843;SDS011;70262;56.950;24.106;2023-05-23T09:08:01;7.50;;;4.13;;
80843;SDS011;70262;56.950;24.106;2023-05-23T09:10:28;5.13;;;3.65;;
80843;SDS011;70262;56.950;24.106;2023-05-23T09:12:54;4.68;;;3.65;;
80843;SDS011;70262;56.950;24.106;2023-05-23T09:15:20;6.25;;;3.88;;
80843;SDS011;70262;56.950;24.106;2023-05-23T09:18:05;6.40;;;3.70;;
80843;SDS011;70262;56.950;24.106;2023-05-23T09:20:31;4.40;;;3.92;;
80843;SDS011;70262;56.950;24.106;2023-05-23T09:22:57;6.50;;;3.60;;
80843;SDS011;70262;56.950;24.106;2023-05-23T09:25:23;6.30;;;3.80;;
80843;SDS011;70262;56.950;24.106;2023-05-23T09:27:50;5.07;;;3.90;;
80843;SDS011;70262;56.950;24.106;2023-05-23T09:30:18;6.70;;;4.18;;
80843;SDS011;70262;56.950;24.106;2023-05-23T09:32:57;5.47;;;3.33;;
80843;SDS011;70262;56.950;24.106;2023-05-23T09:35:23;6.22;;;4.00;;
80843;SDS011;70262;56.950;24.106;2023-05-23T09:37:49;5.00;;;4.00;;
80843;SDS011;70262;56.950;24.106;2023-05-23T09:40:15;8.30;;;3.63;;
80843;SDS011;70262;56.950;24.106;2023-05-23T09:42:44;5.28;;;4.13;;
80843;SDS011;70262;56.950;24.106;2023-05-23T09:45:10;6.47;;;3.50;;
80843;SDS011;70262;56.950;24.106;2023-05-23T09:47:49;4.93;;;3.90;;
80843;SDS011;70262;56.950;24.106;2023-05-23T09:50:18;6.72;;;3.70;;
80843;SDS011;70262;56.950;24.106;2023-05-23T09:52:44;4.13;;;3.38;;
80843;SDS011;70262;56.950;24.106;2023-05-23T09:55:10;5.28;;;3.60;;
80843;SDS011;70262;56.950;24.106;2023-05-23T09:57:36;5.40;;;3.58;;
80843;SDS011;70262;56.950;24.106;2023-05-23T10:00:04;8.00;;;3.47;;
80843;SDS011;70262;56.950;24.106;2023-05-23T10:05:46;5.25;;;3.35;;
80843;SDS011;70262;56.950;24.106;2023-05-23T10:08:15;5.05;;;3.78;;
80843;SDS011;70262;56.950;24.106;2023-05-23T10:13:15;5.15;;;3.88;;
80843;SDS011;70262;56.950;24.106;2023-05-23T10:15:41;4.45;;;3.78;;
80843;SDS011;70262;56.950;24.106;2023-05-23T10:18:17;5.70;;;3.25;;
80843;SDS011;70262;56.950;24.106;2023-05-23T10:20:48;6.15;;;3.40;;
80843;SDS011;70262;56.950;24.106;2023-05-23T10:23:15;5.32;;;3.60;;
80843;SDS011;70262;56.950;24.106;2023-05-23T10:25:43;8.13;;;3.42;;
80843;SDS011;70262;56.950;24.106;2023-05-23T10:28:08;5.85;;;3.67;;
80843;SDS011;70262;56.950;24.106;2023-05-23T10:30:34;5.20;;;3.78;;
80843;SDS011;70262;56.950;24.106;2023-05-23T10:32:59;7.95;;;4.13;;
80843;SDS011;70262;56.950;24.106;2023-05-23T10:40:54;8.30;;;3.72;;
80843;SDS011;70262;56.950;24.106;2023-05-23T10:43:30;7.03;;;3.47;;
80843;SDS011;70262;56.950;24.106;2023-05-23T10:46:18;6.72;;;3.70;;
80843;SDS011;70262;56.950;24.106;2023-05-23T10:48:44;5.53;;;3.60;;
80843;SDS011;70262;56.950;24.106;2023-05-23T10:51:18;5.65;;;4.07;;
80843;SDS011;70262;56.950;24.106;2023-05-23T10:53:44;9.80;;;3.47;;
80843;SDS011;70262;56.950;24.106;2023-05-23T10:56:21;12.05;;;4.13;;
80843;SDS011;70262;56.950;24.106;2023-05-23T10:58:51;6.75;;;3.63;;
80843;SDS011;70262;56.950;24.106;2023-05-23T11:01:20;5.30;;;3.50;;
80843;SDS011;70262;56.950;24.106;2023-05-23T11:06:30;6.80;;;3.72;;
80843;SDS011;70262;56.950;24.106;2023-05-23T11:14:16;8.80;;;3.78;;
80843;SDS011;70262;56.950;24.106;2023-05-23T11:16:42;8.80;;;3.55;;
80843;SDS011;70262;56.950;24.106;2023-05-23T11:22:02;7.63;;;3.78;;
80843;SDS011;70262;56.950;24.106;2023-05-23T11:27:25;9.48;;;3.38;;
80843;SDS011;70262;56.950;24.106;2023-05-23T11:30:01;9.57;;;4.70;;
80843;SDS011;70262;56.950;24.106;2023-05-23T11:32:33;7.00;;;3.05;;
80843;SDS011;70262;56.950;24.106;2023-05-23T11:35:01;6.05;;;3.38;;
80843;SDS011;70262;56.950;24.106;2023-05-23T11:37:28;9.63;;;3.40;;
80843;SDS011;70262;56.950;24.106;2023-05-23T11:39:55;6.30;;;3.50;;
80843;SDS011;70262;56.950;24.106;2023-05-23T11:42:21;7.38;;;3.47;;
80843;SDS011;70262;56.950;24.106;2023-05-23T11:44:50;8.27;;;3.40;;
80843;SDS011;70262;56.950;24.106;2023-05-23T11:47:16;6.53;;;3.28;;
80843;SDS011;70262;56.950;24.106;2023-05-23T11:49:43;7.60;;;3.88;;
80843;SDS011;70262;56.950;24.106;2023-05-23T11:52:14;6.03;;;2.63;;
80843;SDS011;70262;56.950;24.106;2023-05-23T11:54:40;5.25;;;3.58;;
80843;SDS011;70262;56.950;24.106;2023-05-23T11:57:09;6.20;;;3.65;;
80843;SDS011;70262;56.950;24.106;2023-05-23T11:59:35;4.65;;;2.92;;
80843;SDS011;70262;56.950;24.106;2023-05-23T12:02:02;4.47;;;2.83;;
80843;SDS011;70262;56.950;24.106;2023-05-23T12:04:30;4.53;;;3.17;;
80843;SDS011;70262;56.950;24.106;2023-05-23T12:06:55;6.88;;;3.75;;
80843;SDS011;70262;56.950;24.106;2023-05-23T12:09:21;5.32;;;3.50;;
80843;SDS011;70262;56.950;24.106;2023-05-23T12:11:47;6.70;;;3.20;;
80843;SDS011;70262;56.950;24.106;2023-05-23T12:14:14;6.85;;;3.58;;
80843;SDS011;70262;56.950;24.106;2023-05-23T12:16:42;4.40;;;3.47;;
80843;SDS011;70262;56.950;24.106;2023-05-23T12:19:11;9.40;;;3.47;;
80843;SDS011;70262;56.950;24.106;2023-05-23T12:24:14;7.93;;;3.22;;
80843;SDS011;70262;56.950;24.106;2023-05-23T12:29:29;5.07;;;3.42;;
80843;SDS011;70262;56.950;24.106;2023-05-23T12:31:57;11.20;;;4.43;;
80843;SDS011;70262;56.950;24.106;2023-05-23T12:34:22;9.73;;;3.58;;
80843;SDS011;70262;56.950;24.106;2023-05-23T12:36:48;7.95;;;3.33;;
80843;SDS011;70262;56.950;24.106;2023-05-23T12:39:14;8.07;;;3.45;;
80843;SDS011;70262;56.950;24.106;2023-05-23T12:41:43;5.10;;;3.47;;
80843;SDS011;70262;56.950;24.106;2023-05-23T12:44:14;4.65;;;3.63;;
80843;SDS011;70262;56.950;24.106;2023-05-23T12:46:40;4.63;;;3.67;;
80843;SDS011;70262;56.950;24.106;2023-05-23T12:49:05;6.75;;;3.10;;
80843;SDS011;70262;56.950;24.106;2023-05-23T12:51:32;8.48;;;3.72;;
80843;SDS011;70262;56.950;24.106;2023-05-23T12:53:58;6.35;;;3.50;;
80843;SDS011;70262;56.950;24.106;2023-05-23T12:56:23;4.63;;;3.35;;
80843;SDS011;70262;56.950;24.106;2023-05-23T12:58:50;7.45;;;3.53;;
80843;SDS011;70262;56.950;24.106;2023-05-23T13:01:17;6.35;;;3.47;;
80843;SDS011;70262;56.950;24.106;2023-05-23T13:03:43;7.47;;;2.90;;
80843;SDS011;70262;56.950;24.106;2023-05-23T13:06:08;6.15;;;3.13;;
80843;SDS011;70262;56.950;24.106;2023-05-23T13:08:34;8.40;;;3.97;;
80843;SDS011;70262;56.950;24.106;2023-05-23T13:10:59;6.40;;;3.85;;
80843;SDS011;70262;56.950;24.106;2023-05-23T13:13:25;6.75;;;3.42;;
80843;SDS011;70262;56.950;24.106;2023-05-23T13:15:50;7.65;;;3.40;;
80843;SDS011;70262;56.950;24.106;2023-05-23T13:18:16;7.28;;;3.30;;
80843;SDS011;70262;56.950;24.106;2023-05-23T13:20:41;7.32;;;3.45;;
80843;SDS011;70262;56.950;24.106;2023-05-23T13:23:07;5.57;;;3.85;;
80843;SDS011;70262;56.950;24.106;2023-05-23T13:25:33;7.82;;;3.53;;
80843;SDS011;70262;56.950;24.106;2023-05-23T13:27:59;7.88;;;3.67;;
80843;SDS011;70262;56.950;24.106;2023-05-23T13:30:26;8.93;;;3.40;;
80843;SDS011;70262;56.950;24.106;2023-05-23T13:32:52;8.18;;;3.42;;
80843;SDS011;70262;56.950;24.106;2023-05-23T13:35:17;7.63;;;3.67;;
80843;SDS011;70262;56.950;24.106;2023-05-23T13:37:43;5.50;;;3.30;;
80843;SDS011;70262;56.950;24.106;2023-05-23T13:40:19;6.10;;;3.58;;
80843;SDS011;70262;56.950;24.106;2023-05-23T13:42:51;8.98;;;3.60;;
80843;SDS011;70262;56.950;24.106;2023-05-23T13:45:17;7.75;;;3.90;;
80843;SDS011;70262;56.950;24.106;2023-05-23T13:47:43;5.85;;;3.42;;
80843;SDS011;70262;56.950;24.106;2023-05-23T13:50:10;5.28;;;3.47;;
80843;SDS011;70262;56.950;24.106;2023-05-23T13:52:36;6.80;;;3.55;;
80843;SDS011;70262;56.950;24.106;2023-05-23T13:55:02;7.00;;;3.15;;
80843;SDS011;70262;56.950;24.106;2023-05-23T13:57:29;5.60;;;3.30;;
80843;SDS011;70262;56.950;24.106;2023-05-23T13:59:55;6.20;;;3.63;;
80843;SDS011;70262;56.950;24.106;2023-05-23T14:02:21;5.05;;;3.42;;
80843;SDS011;70262;56.950;24.106;2023-05-23T14:04:49;6.25;;;3.97;;
80843;SDS011;70262;56.950;24.106;2023-05-23T14:07:16;14.65;;;3.72;;
80843;SDS011;70262;56.950;24.106;2023-05-23T14:09:46;8.65;;;3.33;;
80843;SDS011;70262;56.950;24.106;2023-05-23T14:12:12;5.95;;;3.45;;
80843;SDS011;70262;56.950;24.106;2023-05-23T14:14:38;6.57;;;3.67;;
80843;SDS011;70262;56.950;24.106;2023-05-23T14:17:03;6.97;;;3.40;;
80843;SDS011;70262;56.950;24.106;2023-05-23T14:19:29;6.85;;;3.25;;
80843;SDS011;70262;56.950;24.106;2023-05-23T14:21:55;6.15;;;3.25;;
80843;SDS011;70262;56.950;24.106;2023-05-23T14:24:20;7.22;;;3.72;;
80843;SDS011;70262;56.950;24.106;2023-05-23T14:26:46;6.47;;;3.40;;
80843;SDS011;70262;56.950;24.106;2023-05-23T14:29:12;8.70;;;3.65;;
80843;SDS011;70262;56.950;24.106;2023-05-23T14:31:40;6.05;;;3.47;;
80843;SDS011;70262;56.950;24.106;2023-05-23T14:34:06;5.68;;;3.53;;
80843;SDS011;70262;56.950;24.106;2023-05-23T14:36:31;6.40;;;3.47;;
80843;SDS011;70262;56.950;24.106;2023-05-23T14:38:57;4.80;;;3.72;;
80843;SDS011;70262;56.950;24.106;2023-05-23T14:41:22;4.55;;;3.58;;
80843;SDS011;70262;56.950;24.106;2023-05-23T14:43:51;6.40;;;4.05;;
80843;SDS011;70262;56.950;24.106;2023-05-23T14:46:16;4.95;;;3.53;;
80843;SDS011;70262;56.950;24.106;2023-05-23T14:48:45;6.95;;;3.78;;
80843;SDS011;70262;56.950;24.106;2023-05-23T14:51:12;7.10;;;3.97;;
80843;SDS011;70262;56.950;24.106;2023-05-23T14:53:38;7.25;;;4.18;;
80843;SDS011;70262;56.950;24.106;2023-05-23T14:56:04;6.93;;;3.83;;
80843;SDS011;70262;56.950;24.106;2023-05-23T14:58:30;6.15;;;3.83;;
80843;SDS011;70262;56.950;24.106;2023-05-23T15:00:56;5.63;;;3.58;;
80843;SDS011;70262;56.950;24.106;2023-05-23T15:03:21;7.53;;;3.92;;
80843;SDS011;70262;56.950;24.106;2023-05-23T15:05:47;7.65;;;3.47;;